Weather observations for the past three days for
Port Lavaca - Calhoun County Airport
Imperial (Metric)
Date Time (cdt) Wind (mph) Vis. (mi.) Weather Sky Cond. Temperature (ºF) Relative Humidity Wind Chill (°F) Heat Index (°F) Pressure Precipitation (in)
Air Dwpt 6 hour altimeter (in) sea level (mb) 1 hr 3 hr 6 hr
Max. Min.
03 09:55 S 13 10.00 Fair CLR 88.2 79.5 76% 104 29.92 0.0
03 09:35 S 12 10.00 A Few Clouds FEW021 87.1 80.1 80% 103 29.92 0.0
03 09:15 S 12 10.00 Partly Cloudy SCT020 87.4 80.8 81% 105 29.92 0.0
03 08:35 SW 9 10.00 Fair CLR 85.3 81.7 89% 102 29.92 0.0
03 08:15 SW 8 10.00 Fair CLR 84 81.7 93% 99 29.92 0.0
03 07:55 SW 7 10.00 Fair CLR 82.4 81.1 96% 95 29.91 0.0
03 07:35 S 7 10.00 Fair CLR 82.2 81 96% 94 29.9 0.0
03 07:15 SW 7 10.00 Fair CLR 81.9 81 97% 93 29.9 0.0
03 06:55 SW 5 10.00 Fair CLR 81.9 81 83.5 81.9 97% 93 29.9 0.0
03 06:35 S 7 9.00 Fair CLR 82.2 81.1 97% 94 29.89 0.0
03 06:15 S 7 10.00 Fair CLR 82.8 81.1 95% 96 29.89 0.0
03 05:55 SW 7 9.00 Fair CLR 83.1 81.1 94% 97 29.89 0.0
03 05:35 S 7 10.00 A Few Clouds FEW018 83.3 81.1 93% 97 29.89 0.0
03 05:15 S 7 10.00 Partly Cloudy SCT019 83.3 80.8 92% 97 29.9 0.0
03 04:55 S 7 10.00 Partly Cloudy SCT021 83.1 81 93% 96 29.89 0.0
03 04:35 S 6 9.00 Partly Cloudy SCT020 SCT028 82.6 81.1 95% 95 29.9 0.0
03 04:15 S 6 9.00 Fair CLR 82.6 81 95% 95 29.9 0.0
03 03:55 S 8 9.00 Fair CLR 82.4 80.8 95% 94 29.89 0.0
03 03:35 S 8 10.00 Fair CLR 82.6 80.6 94% 95 29.89 0.0
03 03:15 S 7 10.00 Fair CLR 82 80.2 94% 93 29.89 0.0
03 02:55 S 7 9.00 Fair CLR 82.2 80.2 94% 93 29.89 0.0
03 02:35 S 6 10.00 Fair CLR 82.4 80.2 93% 94 29.9 0.0
03 02:15 S 7 10.00 Fair CLR 82.6 80.1 92% 94 29.9 0.0
03 01:55 S 7 10.00 Fair CLR 82.6 80.2 93% 94 29.9 0.0
03 01:35 S 6 10.00 A Few Clouds FEW022 82.8 80.2 92% 95 29.9 0.0
03 01:15 S 9 10.00 Partly Cloudy SCT022 82.9 80.4 92% 95 29.91 0.0
03 00:55 S 8 10.00 A Few Clouds FEW021 82.8 80.4 88.9 82.8 93% 95 29.91 0.0
03 00:35 S 7 10.00 Fair CLR 82.9 80.4 92% 95 29.91 0.0
03 00:15 S 8 10.00 Fair CLR 83.1 80.6 92% 96 29.91 0.0
02 23:55 SE 9 10.00 Fair CLR 82.9 80.4 92% 95 29.91 0.0
02 23:35 S 7 10.00 Fair CLR 82.8 79.9 91% 94 29.91 0.0
02 23:15 S 8 10.00 Fair CLR 83.5 80.1 89% 96 29.91 0.0
02 22:55 S 9 10.00 Fair CLR 83.5 79.9 89% 96 29.91 0.0
02 22:35 S 10 10.00 Fair CLR 84 80.1 88% 97 29.91 0.0
02 22:15 S 10 9.00 Fair CLR 84 80.1 88% 97 29.9 0.0
02 21:55 SE 10 9.00 Fair CLR 84.2 80.1 87% 98 29.89 0.0
02 21:35 S 12 9.00 Fair CLR 84.2 80.1 87% 98 29.88 0.0
02 21:15 S 10 9.00 Fair CLR 84.2 79.9 87% 97 29.88 0.0
02 20:55 SE 12 9.00 Fair CLR 84.6 80.1 86% 98 29.87 0.0
02 20:35 S 10 9.00 Fair CLR 84.9 79.9 85% 99 29.87 0.0
02 20:15 SE 14 9.00 Fair CLR 85.5 79.9 83% 100 29.86 0.0
02 19:55 S 15 8.00 Fair CLR 86.2 79.3 80% 100 29.86 0.0
02 19:35 S 14 8.00 Fair CLR 86.9 79 77% 101 29.86 0.0
02 19:15 S 18 10.00 Fair CLR 88.2 78.8 74% 103 29.86 0.0
02 18:55 S 13 G 21 10.00 Overcast OVC100 90 78.1 97.5 90 68% 105 30.13 0.0
02 18:50 SE 16 G 23 10.00 Fair CLR 90 78.1 68% 105 29.86 0.0
02 18:35 S 17 G 22 10.00 Fair CLR 90.5 77.4 65% 104 29.86 0.0
02 18:15 S 14 G 20 10.00 Fair CLR 91.9 76.3 60% 105 29.86 0.0
02 17:55 S 14 10.00 Fair CLR 93.4 74.1 54% 104 29.85 0.0
02 17:35 S 13 G 20 9.00 Fair CLR 95 73.4 50% 105 29.85 0.0
02 17:15 S 13 G 22 10.00 Fair CLR 95.2 71.8 47% 103 29.85 0.0
02 16:55 S 12 10.00 Fair CLR 96.6 71.8 45% 105 29.86 0.0
02 16:15 S 14 10.00 Fair CLR 96.3 69.4 42% 102 29.86 0.0
02 15:55 S 13 10.00 Fair CLR 96.4 70.5 43% 104 29.87 0.0
02 15:35 S 12 G 21 10.00 Fair CLR 96.3 72.9 47% 106 29.88 0.0
02 15:15 S 15 10.00 Fair CLR 97.2 74.1 48% 109 29.88 0.0
02 14:55 S 12 10.00 Fair CLR 96.6 75.4 51% 110 29.89 0.0
02 14:35 S 12 G 18 10.00 Fair CLR 96.4 76.3 52% 111 29.9 0.0
02 14:15 S 13 10.00 A Few Clouds FEW046 96.4 76.8 53% 111 29.9 0.0
02 13:55 SW 9 9.00 Fair CLR 96.1 75 51% 108 29.91 0.0
02 13:35 S 12 G 17 9.00 A Few Clouds FEW330 96.8 76.5 52% 111 29.92 0.0
02 13:15 SW 8 G 18 10.00 A Few Clouds FEW043 95.2 76.5 55% 109 29.92 0.0
02 12:55 SW 7 G 16 10.00 A Few Clouds FEW040 94.5 77 95.4 81.3 57% 109 29.94 0.0
02 12:35 S 10 9.00 Partly Cloudy SCT039 95 77.5 57% 111 29.95 0.0
02 12:15 SW 14 G 17 9.00 Partly Cloudy SCT038 94.5 77.9 59% 111 29.96 0.0
02 11:55 SW 8 G 16 10.00 A Few Clouds FEW036 92.7 78.3 63% 109 29.97 0.0
02 11:35 Vrbl 7 10.00 A Few Clouds FEW033 92.7 78.1 63% 108 29.97 0.0
02 11:15 S 16 10.00 Mostly Cloudy BKN032 92.1 78.3 64% 108 29.97 0.0
02 10:55 S 13 10.00 Mostly Cloudy BKN031 91.4 78.6 66% 107 29.97 0.0
02 10:35 SW 14 G 21 10.00 Partly Cloudy SCT028 90.5 78.3 67% 106 29.97 0.0
02 10:15 S 13 10.00 A Few Clouds FEW028 89.6 78.8 71% 105 29.96 0.0
02 09:55 SW 15 10.00 A Few Clouds FEW022 87.1 78.8 76% 101 29.96 0.0
02 09:35 SW 16 10.00 A Few Clouds FEW022 87.3 79.9 79% 103 29.96 0.0
02 09:15 SW 13 10.00 Fair CLR 85.8 80.2 83% 101 29.96 0.0
02 08:55 SW 9 10.00 A Few Clouds FEW080 84.6 80.2 87% 99 29.96 0.0
02 08:35 SW 7 10.00 A Few Clouds FEW080 83.7 80.1 89% 96 29.96 0.0
02 08:15 SW 5 10.00 Fair CLR 82.6 80.1 92% 94 29.96 0.0
02 07:55 Calm 10.00 Fair CLR 81.5 79.9 95% 91 29.95 0.0
02 07:35 SW 6 10.00 A Few Clouds FEW020 81.5 79.5 94% 91 29.94 0.0
02 07:15 SW 7 10.00 Fair CLR 81.7 79.7 94% 92 29.94 0.0
02 06:55 SW 9 10.00 Fair CLR 82 79.9 83.1 81.7 93% 93 29.93 0.0
02 06:35 SW 13 10.00 A Few Clouds FEW080 82.2 80.1 93% 93 29.93 0.0
02 06:15 SW 9 10.00 Mostly Cloudy BKN080 82 80.1 94% 93 29.93 0.0
02 05:55 SW 8 10.00 Fair CLR 81.7 80.1 95% 92 29.93 0.0
02 05:35 SW 10 10.00 Fair CLR 81.7 79.9 94% 92 29.92 0.0
02 05:15 SW 8 10.00 Fair CLR 81.7 79.7 94% 92 29.92 0.0
02 04:55 S 8 10.00 Fair CLR 81.7 79.5 93% 91 29.92 0.0
02 04:35 S 7 10.00 Fair CLR 81.9 79.5 93% 92 29.92 0.0
02 04:15 SW 7 10.00 Fair CLR 82 79.3 92% 92 29.92 0.0
02 04:00 SW 8 10.00 Fair CLR 82.2 79.7 92% 93 29.92 0.0
02 03:55 SW 9 10.00 Fair CLR 82.4 79.7 92% 93 29.92 0.0
02 03:35 SW 10 10.00 Fair CLR 82.6 79.7 91% 94 29.93 0.0
02 03:30 SW 10 10.00 Fair CLR 82.6 79.7 91% 94 29.93 0.0
02 03:15 SW 9 10.00 Fair CLR 82.8 79.7 91% 94 29.93 0.0
02 02:55 SW 9 10.00 Fair CLR 83.1 79.5 89% 95 29.94 0.0
02 02:35 S 8 10.00 Fair CLR 82.8 79.5 90% 94 29.94 0.0
02 02:15 S 7 10.00 Fair CLR 82.6 80.4 93% 94 29.94 0.0
02 01:55 S 6 10.00 Fair CLR 82.6 80.4 93% 94 29.94 0.0
02 01:35 S 8 9.00 Fair CLR 82.4 80.4 94% 94 29.93 0.0
02 01:15 S 8 10.00 Fair CLR 82.4 80.4 94% 94 29.93 0.0
02 00:55 S 8 10.00 Fair CLR 82.4 80.2 89.6 81.5 93% 94 29.93 0.0
02 00:35 S 7 10.00 Fair CLR 82.6 80.2 93% 94 29.93 0.0
02 00:15 S 8 10.00 Fair CLR 82.4 80.1 93% 94 29.93 0.0
01 23:55 S 7 10.00 Fair CLR 82 80.1 94% 93 29.93 0.0
01 23:35 S 7 10.00 Fair CLR 82 79.9 93% 93 29.93 0.0
01 23:20 S 6 10.00 Fair CLR 81.7 79.5 93% 91 29.93 0.0
01 23:15 S 7 10.00 Fair CLR 81.7 79.7 94% 92 29.94 0.0
01 22:55 S 6 10.00 Fair CLR 81.9 79.5 93% 92 29.93 0.0
01 22:50 S 6 10.00 Fair CLR 81.9 79.5 93% 92 29.93 0.0
01 22:35 S 6 10.00 Fair CLR 82 79.3 92% 92 29.92 0.0
01 22:15 S 7 10.00 Fair CLR 82.2 79.3 91% 92 29.92 0.0
01 22:10 S 7 10.00 Fair CLR 82.2 79 90% 92 29.92 0.0
01 21:55 S 8 10.00 Fair CLR 82.4 78.8 89% 92 29.91 0.0
01 21:35 S 6 10.00 Fair CLR 82.4 78.1 87% 92 29.9 0.0
01 21:15 S 6 10.00 Fair CLR 83.1 77.5 83% 93 29.89 0.0
01 20:55 S 7 9.00 Fair CLR 84 75.9 77% 93 29.88 0.0
01 20:35 S 6 10.00 Fair CLR 84.4 75.4 74% 93 29.89 0.0
01 20:15 S 8 9.00 Fair CLR 84.9 74.7 71% 93 29.89 0.0
01 19:55 S 9 4.00 A Few Clouds with Haze FEW080 86.4 74.3 67% 95 29.88 0.0
01 19:35 S 8 4.00 Partly Cloudy with Haze SCT070 87.1 75 67% 97 29.89 0.0
01 19:15 S 12 4.00 Mostly Cloudy with Haze BKN070 88.3 75 65% 98 29.89 0.0
01 18:55 SE 13 4.00 Fair with Haze CLR 90.3 73.4 97.9 90.3 58% 99 29.88 0.0
01 18:35 SE 13 4.00 A Few Clouds with Haze FEW080 90.9 73 56% 99 29.88 0.0
01 18:15 SE 13 5.00 Partly Cloudy with Haze SCT080 92.5 73 53% 101 29.88 0.0
01 17:55 S 12 6.00 Haze Thunderstorm in Vicinity FEW060 SCT120 93 72.7 52% 102 29.87 0.0
01 17:35 S 13 6.00 Haze Thunderstorm in Vicinity BKN060 92.8 73.8 54% 103 29.87 0.0
01 17:15 S 13 6.00 Overcast with Haze OVC060 93.4 74.1 54% 104 29.87 0.0
01 16:55 S 9 6.00 Partly Cloudy with Haze SCT055 95.2 73.6 50% 105 29.87 0.0
01 16:35 Vrbl 6 6.00 A Few Clouds with Haze FEW070 95.9 73.8 49% 107 29.87 0.0
01 16:15 S 10 7.00 A Few Clouds FEW050 95.5 74.1 50% 107 29.87 0.0
01 15:55 SE 9 6.00 Mostly Cloudy with Haze SCT050 BKN060 93.9 75.2 55% 106 29.88 0.0
01 15:35 SE 9 G 17 6.00 Mostly Cloudy with Haze SCT050 BKN065 93.9 75.7 56% 107 29.88 0.0
01 15:15 Vrbl 3 6.00 Mostly Cloudy with Haze BKN055 94.3 74.3 52% 105 29.89 0.0
01 14:55 S 9 6.00 Mostly Cloudy with Haze BKN055 96.8 75.2 50% 110 29.9 0.0
01 14:35 Vrbl 7 7.00 A Few Clouds FEW050 95.9 74.8 51% 108 29.91 0.0
01 14:15 SW 9 7.00 Fair CLR 95 75.2 53% 107 29.92 0.0
01 13:55 S 8 7.00 A Few Clouds FEW055 94.1 76.1 56% 107 29.93 0.0
01 13:35 S 9 7.00 Partly Cloudy SCT060 SCT360 93.7 77.2 59% 108 29.94 0.0
01 13:15 Calm 8.00 Mostly Cloudy BKN055 BKN065 92.7 73 53% 102 29.94 0.0
01 12:55 N 3 8.00 Partly Cloudy FEW050 SCT370 92.7 73 93.7 75.9 53% 102 29.95 0.0
01 12:35 Vrbl 5 8.00 A Few Clouds FEW320 93.2 74.1 54% 104 29.96 0.0
01 12:15 Vrbl 3 8.00 Partly Cloudy SCT065 91.9 74.5 57% 102 29.97 0.0
01 11:55 NW 5 8.00 Partly Cloudy FEW042 SCT050 91.2 75.2 59% 102 29.98 0.0
01 11:35 Vrbl 3 9.00 A Few Clouds FEW040 91.4 75.4 60% 103 29.98 0.0
01 11:15 Calm 9.00 Partly Cloudy FEW031 SCT047 90.3 77 65% 104 29.98 0.0
01 10:55 NW 7 9.00 Partly Cloudy FEW029 SCT050 90.3 79.2 70% 107 29.98 0.0
01 10:35 Vrbl 6 9.00 A Few Clouds FEW024 89.2 79 72% 105 29.98 0.0
01 10:15 NW 5 9.00 Mostly Cloudy SCT020 BKN026 87.6 79.7 77% 103 29.98 0.0
01 09:55 Vrbl 5 9.00 Partly Cloudy SCT018 86.5 80.6 83% 103 29.98 0.0
01 09:35 W 5 10.00 Fair CLR 86.4 81 84% 103 29.98 0.0
01 09:15 N 5 10.00 Fair CLR 84.9 81 88% 100 29.98 0.0
01 08:55 N 3 9.00 Fair CLR 82.4 79.9 92% 93 29.98 0.0
01 08:35 N 3 10.00 Fair CLR 80.8 79.7 97% 89 29.98 0.0
01 08:15 N 3 10.00 Fair CLR 79 78.6 99% 84 29.97 0.0
01 07:55 Calm 10.00 Partly Cloudy FEW022 SCT031 77.2 77.2 100% 78 29.96 0.0
01 07:35 Calm 10.00 Partly Cloudy SCT022 77.5 77.5 100% 79 29.96 0.0
01 07:15 N 3 10.00 A Few Clouds FEW022 75.9 75.9 100% 75 29.95 0.0
01 06:55 N 5 10.00 Partly Cloudy SCT021 76.8 76.6 79 74.5 99% 77 29.94 0.0
01 06:35 N 5 10.00 Fair CLR 76.8 76.5 99% 77 29.94 0.0
01 06:15 NE 3 10.00 Fair CLR 75.6 75.2 99% 74 29.93 0.0
01 05:35 N 3 10.00 Fair CLR 75.9 75.9 100% 75 29.93 0.0
01 05:15 N 3 10.00 Fair CLR 75.7 75.7 100% 74 29.94 0.0
01 04:55 Calm 9.00 Fair CLR 77 77 100% 78 29.94 0.0
01 04:35 SW 3 10.00 Fair CLR 76.3 76.1 99% 76 29.94 0.0
01 04:15 SW 3 10.00 Fair CLR 77.2 76.8 99% 78 29.94 0.0
01 03:55 S 3 10.00 Fair CLR 78.4 78.4 100% 82 29.95 0.0
01 03:35 S 3 10.00 Fair CLR 78.3 78.3 100% 81 29.94 0.0
01 03:15 S 3 10.00 Fair CLR 77.7 77.5 99% 80 29.95 0.0
01 02:55 S 3 10.00 Fair CLR 77.5 77 98% 79 29.95 0.0
01 02:35 S 5 10.00 Fair CLR 77.7 77.4 99% 80 29.95 0.0
01 02:15 SE 3 10.00 Fair CLR 78.4 77.4 97% 82 29.95 0.0
01 01:55 S 3 10.00 Fair CLR 77.7 76.6 97% 80 29.95 0.0
01 01:35 S 5 10.00 Fair CLR 77.9 76.6 96% 80 29.95 0.0
01 01:15 Calm 10.00 Fair CLR 78.3 76.3 94% 81 29.96 0.0
01 00:55 Calm 9.00 Fair CLR 78.8 77.2 88.5 78.8 95% 83 29.95 0.0
01 00:35 S 3 8.00 Fair CLR 78.8 77 94% 83 29.95 0.0
01 00:15 Calm 8.00 Fair CLR 79 77.2 94% 83 29.95 0.0
31 23:55 Calm 8.00 Fair CLR 79.9 76.8 90% 85 29.95 0.0
31 23:35 S 3 8.00 Fair CLR 80.1 77 90% 86 29.95 0.0
31 23:15 SE 5 8.00 Fair CLR 80.8 77.2 89% 88 29.95 0.0
31 22:55 SE 5 9.00 Fair CLR 80.6 77.4 90% 87 29.95 0.0
31 22:35 S 3 7.00 Fair CLR 81 77.7 90% 88 29.95 0.0
31 22:15 S 3 9.00 Fair CLR 81.3 77.7 89% 89 29.94 0.0
31 21:55 S 6 9.00 Fair CLR 81.9 77.9 88% 90 29.93 0.0
31 21:35 SE 8 9.00 Fair CLR 82.2 77.9 87% 91 29.92 0.0
31 21:15 SE 8 9.00 Fair CLR 83.1 78.3 85% 93 29.92 0.0
31 20:55 SE 8 10.00 Fair CLR 83.8 78.8 85% 95 29.91 0.0
31 20:35 SE 9 9.00 Fair CLR 84.4 79 84% 97 29.91 0.0
31 20:15 SE 13 6.00 Fair with Haze CLR 85.5 78.8 81% 98 29.91 0.0
31 19:55 SE 14 6.00 Fair with Haze CLR 86.4 79.7 81% 101 29.91 0.0
31 19:35 SE 14 6.00 Fair with Haze CLR 87.1 79.9 79% 103 29.91 0.0
31 19:15 SE 16 6.00 Fair with Haze CLR 88 80.1 77% 105 29.9 0.0
31 18:55 SE 17 8.00 Fair CLR 89.2 80.2 95.2 89.2 75% 107 29.9 0.0
31 18:35 SE 17 7.00 Fair CLR 89.6 79 71% 105 29.9 0.0
31 18:15 SE 16 8.00 Fair CLR 91 78.4 67% 107 29.9 0.0
31 17:55 E 15 8.00 Fair CLR 92.1 78.3 64% 108 29.9 0.0
31 17:35 SE 15 8.00 Fair CLR 92.5 78.1 63% 108 29.9 0.0
31 17:15 SE 15 8.00 Fair CLR 92.8 77.4 61% 107 29.9 0.0
31 16:55 SE 14 8.00 Fair CLR 93.7 76.1 57% 107 29.91 0.0
31 16:35 SE 15 9.00 Fair CLR 93.7 77.7 60% 109 29.91 0.0
31 16:15 SE 15 8.00 Fair CLR 94.3 78.8 61% 112 29.91 0.0
31 15:55 SE 12 G 20 9.00 Fair CLR 94.8 77.7 58% 111 29.92 0.0
31 15:35 SE 14 8.00 Fair CLR 92.3 76.1 59% 105 29.93 0.0
31 15:15 Vrbl 3 9.00 Partly Cloudy SCT060 90.1 75.2 62% 101 29.94 0.0
31 14:55 SE 10 9.00 Mostly Cloudy SCT049 BKN060 91.8 77.2 62% 106 29.96 0.0
31 14:35 SE 9 9.00 Fair CLR 94.6 78.1 59% 111 29.96 0.0
31 14:15 SE 13 10.00 Fair CLR 94.8 78.1 58% 111 29.96 0.0
31 13:55 SE 14 G 18 10.00 Fair CLR 94.5 78.8 61% 112 29.96 0.0
31 13:35 E 10 10.00 A Few Clouds FEW340 94.8 79.5 61% 114 29.97 0.0
31 13:15 SE 9 G 18 10.00 Fair CLR 93.4 78.4 62% 110 29.98 0.0
31 12:35 SE 10 10.00 Mostly Cloudy SCT040 BKN100 94.3 77.9 59% 110 29.98 0.0
31 12:15 SE 7 9.00 Overcast BKN039 OVC055 90.9 77 64% 104 29.98 0.0
31 11:55 Vrbl 5 9.00 Overcast BKN043 BKN050 OVC065 90.5 75.7 62% 102 29.99 0.0
31 11:35 Calm 10.00 Mostly Cloudy BKN045 BKN050 90.5 75.4 61% 102 29.99 0.0
31 11:15 Vrbl 3 10.00 A Few Clouds FEW055 90 75.2 62% 101 29.99 0.0
31 10:55 Vrbl 6 9.00 Fair CLR 89.6 75.7 64% 101 29.99 0.0
31 10:35 Vrbl 3 10.00 A Few Clouds FEW035 89.1 74.5 62% 99 29.99 0.0
31 10:15 S 8 10.00 Partly Cloudy FEW028 SCT035 90.7 76.8 64% 104 29.99 0.0
Date Time (cdt) Wind (mph) Vis. (mi.) Weather Sky Cond. Air Dwpt Max. Min. Relative Humidity Wind Chill (°F) Heat Index (°F) altimeter (in) sea level (mb) 1 hr 3 hr 6 hr
6 hour
Temperature (ºF) Pressure Precipitation (in)